createdAt,value
2023-03-06T00:03:28.180Z,77.19
2023-03-06T00:08:31.413Z,77.01
2023-03-06T00:13:40.615Z,77.03
2023-03-06T00:18:44.128Z,77.28
2023-03-06T00:23:46.484Z,77.52
2023-03-06T00:28:49.277Z,77.75
2023-03-06T00:33:53.633Z,78.11
2023-03-06T00:38:56.133Z,78.16
2023-03-06T00:44:04.052Z,77.83
2023-03-06T00:49:10.525Z,78.21
2023-03-06T00:54:33.327Z,78.56
2023-03-06T00:59:35.924Z,78.63
2023-03-06T01:04:39.035Z,78.97
2023-03-06T01:09:41.296Z,79.56
2023-03-06T01:14:43.371Z,79.82
2023-03-06T01:19:45.446Z,79.99
2023-03-06T01:24:49.295Z,79.99
2023-03-06T01:29:51.733Z,80.11
2023-03-06T01:34:54.277Z,80.18
2023-03-06T01:39:56.440Z,80.11
2023-03-06T01:45:08.504Z,80.20
2023-03-06T01:50:12.743Z,80.17
2023-03-06T01:55:21.294Z,80.12
2023-03-06T02:00:29.651Z,80.28
2023-03-06T02:05:32.591Z,80.08
2023-03-06T02:10:35.140Z,80.18
2023-03-06T02:15:39.847Z,80.07
2023-03-06T02:21:20.409Z,79.72
2023-03-06T02:26:23.083Z,79.53
2023-03-06T02:31:28.984Z,79.37
2023-03-06T02:36:35.894Z,78.98
2023-03-06T02:41:38.276Z,79.01
2023-03-06T02:46:41.077Z,78.94
2023-03-06T02:51:43.909Z,79.02
2023-03-06T02:56:48.125Z,79.14
2023-03-06T03:01:50.597Z,79.22
2023-03-06T03:06:53.521Z,79.07
2023-03-06T03:11:55.703Z,79.05
2023-03-06T03:17:01.195Z,79.12
2023-03-06T03:22:03.384Z,79.21
2023-03-06T03:27:06.580Z,79.34
2023-03-06T03:32:09.908Z,79.50
2023-03-06T03:37:14.095Z,79.55
2023-03-06T03:42:17.582Z,79.66
2023-03-06T03:47:20.101Z,79.64
2023-03-06T03:52:23.153Z,79.60
2023-03-06T03:57:26.460Z,79.57
2023-03-06T04:02:29.338Z,79.46
2023-03-06T04:07:46.860Z,79.43
2023-03-06T04:12:49.519Z,79.40
2023-03-06T04:17:51.951Z,79.37
2023-03-06T04:22:56.850Z,79.23
2023-03-06T04:27:59.238Z,79.12
2023-03-06T04:33:03.506Z,79.04
2023-03-06T04:38:06.008Z,79.05
2023-03-06T04:43:09.244Z,79.06
2023-03-06T04:48:18.868Z,79.34
2023-03-06T04:53:22.473Z,79.70
2023-03-06T04:58:25.876Z,79.80
2023-03-06T05:03:28.388Z,80.07
2023-03-06T05:08:31.139Z,80.27
2023-03-06T05:13:33.755Z,80.46
2023-03-06T05:18:37.940Z,80.88
2023-03-06T05:23:40.446Z,81.19
2023-03-06T05:28:42.849Z,81.38
2023-03-06T05:33:44.865Z,81.51
2023-03-06T05:38:46.830Z,81.41
2023-03-06T05:43:49.717Z,81.53
2023-03-06T05:48:56.118Z,81.54
2023-03-06T05:53:58.520Z,81.57
2023-03-06T05:59:00.760Z,81.63
2023-03-06T06:04:03.277Z,81.51
2023-03-06T06:09:05.110Z,81.42
2023-03-06T06:14:07.204Z,81.27
2023-03-06T06:19:09.682Z,80.91
2023-03-06T06:24:11.895Z,80.62
2023-03-06T06:29:13.880Z,80.35
2023-03-06T06:34:17.052Z,80.12
2023-03-06T06:39:21.434Z,79.82
2023-03-06T06:44:23.815Z,79.52
2023-03-06T06:49:25.914Z,79.22
2023-03-06T06:54:28.404Z,78.74
2023-03-06T06:59:30.305Z,78.24
2023-03-06T07:04:32.255Z,77.66
2023-03-06T07:09:34.504Z,77.13
2023-03-06T07:14:37.233Z,76.59
2023-03-06T07:19:39.663Z,75.98
2023-03-06T07:24:41.847Z,75.36
2023-03-06T07:29:44.681Z,74.97
2023-03-06T07:34:47.207Z,74.11
2023-03-06T07:39:49.128Z,73.61
2023-03-06T07:44:52.862Z,73.09
2023-03-06T07:49:57.264Z,72.83
2023-03-06T07:54:59.866Z,72.67
2023-03-06T08:00:03.333Z,72.37
2023-03-06T08:05:16.688Z,71.70
2023-03-06T08:10:18.785Z,71.49
2023-03-06T08:15:20.922Z,70.95
2023-03-06T08:20:23.302Z,70.08
2023-03-06T08:25:25.247Z,69.48
2023-03-06T08:30:27.081Z,68.63
2023-03-06T08:35:28.981Z,68.19
2023-03-06T08:40:31.213Z,67.52
2023-03-06T08:45:33.200Z,66.87
2023-03-06T08:50:35.600Z,65.92
2023-03-06T08:55:38.427Z,65.83
2023-03-06T09:00:40.646Z,65.83
2023-03-06T09:05:42.707Z,66.10
2023-03-06T09:10:48.380Z,65.25
2023-03-06T09:15:54.463Z,65.33
2023-03-06T09:20:56.954Z,66.29
2023-03-06T09:26:00.352Z,66.65
2023-03-06T09:31:07.851Z,65.92
2023-03-06T09:36:18.966Z,66.01
2023-03-06T09:41:34.286Z,66.35
2023-03-06T09:47:14.619Z,66.31
2023-03-06T09:52:36.586Z,65.15
2023-03-06T09:57:42.833Z,65.90
2023-03-06T10:02:50.688Z,65.19
2023-03-06T10:08:05.754Z,64.53
2023-03-06T10:13:28.272Z,64.16
2023-03-06T10:18:30.450Z,63.69
2023-03-06T10:23:46.924Z,62.62
2023-03-06T10:29:14.719Z,60.50
2023-03-06T10:34:22.172Z,60.91
2023-03-06T10:39:24.065Z,61.10
2023-03-06T10:44:25.981Z,60.87
2023-03-06T10:49:36.610Z,60.04
2023-03-06T10:54:44.378Z,59.85
2023-03-06T10:59:58.586Z,60.17
2023-03-06T11:05:02.092Z,58.85
2023-03-06T11:10:19.008Z,59.57
2023-03-06T11:15:22.556Z,59.77
2023-03-06T11:20:24.834Z,59.01
2023-03-06T11:25:34.503Z,58.74
2023-03-06T11:30:43.904Z,58.63
2023-03-06T11:35:52.115Z,58.94
2023-03-06T11:40:59.002Z,59.74
2023-03-06T11:46:25.229Z,59.33
2023-03-06T11:51:33.286Z,58.66
2023-03-06T11:56:38.391Z,57.95
2023-03-06T12:02:00.624Z,58.15
2023-03-06T12:07:21.548Z,57.45
2023-03-06T12:12:46.423Z,56.91
2023-03-06T12:18:16.370Z,56.71
2023-03-06T12:23:39.129Z,57.38
2023-03-06T12:29:07.411Z,57.30
2023-03-06T12:34:34.109Z,58.06
2023-03-06T12:40:13.744Z,58.40
2023-03-06T12:45:39.642Z,58.40
2023-03-06T12:50:45.623Z,58.52
2023-03-06T12:55:50.303Z,58.76
2023-03-06T13:01:16.775Z,59.65
2023-03-06T13:06:50.887Z,61.20
2023-03-06T13:12:05.985Z,61.55
2023-03-06T13:17:25.465Z,62.02
2023-03-06T13:22:29.712Z,58.39
2023-03-06T13:27:54.805Z,55.17
2023-03-06T13:32:57.424Z,53.79
2023-03-06T13:38:00.436Z,54.15
2023-03-06T13:43:08.088Z,54.20
2023-03-06T13:48:47.713Z,54.64
2023-03-06T13:54:26.281Z,54.85
2023-03-06T13:59:37.199Z,53.98
2023-03-06T14:04:47.428Z,54.76
2023-03-06T14:10:11.045Z,57.27
2023-03-06T14:15:31.727Z,60.46
2023-03-06T14:20:40.539Z,63.67
2023-03-06T14:25:45.312Z,64.55
2023-03-06T14:30:53.688Z,64.85
2023-03-06T14:35:59.679Z,65.47
2023-03-06T14:41:03.342Z,65.90
2023-03-06T14:46:06.960Z,66.11
2023-03-06T14:51:17.025Z,66.17
2023-03-06T14:56:25.831Z,65.95
2023-03-06T15:01:38.511Z,65.97
2023-03-06T15:06:43.725Z,65.97
2023-03-06T15:11:57.905Z,65.88
2023-03-06T15:17:18.429Z,65.79
2023-03-06T15:22:31.624Z,65.91
2023-03-06T15:27:33.719Z,65.88
2023-03-06T15:32:42.877Z,66.03
2023-03-06T15:37:44.974Z,66.48
2023-03-06T15:42:47.382Z,67.04
2023-03-06T15:47:52.095Z,67.02
2023-03-06T15:52:54.174Z,67.25
2023-03-06T15:58:02.244Z,67.34
2023-03-06T16:03:05.040Z,67.23
2023-03-06T16:08:07.526Z,67.21
2023-03-06T16:13:22.401Z,67.15
2023-03-06T16:18:25.115Z,67.19
2023-03-06T16:23:27.078Z,67.27
2023-03-06T16:28:29.049Z,67.14
2023-03-06T16:33:30.993Z,67.13
2023-03-06T16:38:32.937Z,67.18
2023-03-06T16:43:35.563Z,67.34
2023-03-06T16:48:37.799Z,67.60
2023-03-06T16:53:39.930Z,67.82
2023-03-06T16:58:45.490Z,67.96
2023-03-06T17:03:47.972Z,68.00
2023-03-06T17:08:51.057Z,68.00
2023-03-06T17:13:54.835Z,67.83
2023-03-06T17:18:58.288Z,67.90
2023-03-06T17:24:02.502Z,67.76
2023-03-06T17:29:07.009Z,67.40
2023-03-06T17:34:09.446Z,67.23
2023-03-06T17:39:12.949Z,67.08
2023-03-06T17:44:16.973Z,67.00
2023-03-06T17:49:21.645Z,66.77
2023-03-06T17:54:30.075Z,66.58
2023-03-06T17:59:36.297Z,66.04
2023-03-06T18:04:38.597Z,65.97
2023-03-06T18:09:42.878Z,65.86
2023-03-06T18:14:45.579Z,65.78
2023-03-06T18:19:48.182Z,65.80
2023-03-06T18:24:51.081Z,65.88
2023-03-06T18:29:55.550Z,65.91
2023-03-06T18:34:58.309Z,66.04
2023-03-06T18:40:00.835Z,66.05
2023-03-06T18:45:03.367Z,66.15
2023-03-06T18:50:06.832Z,66.34
2023-03-06T18:55:10.364Z,66.45
2023-03-06T19:00:22.472Z,66.79
2023-03-06T19:05:24.563Z,66.99
2023-03-06T19:10:27.064Z,67.35
2023-03-06T19:15:30.265Z,67.45
2023-03-06T19:20:33.020Z,67.69
2023-03-06T19:25:35.821Z,67.83
2023-03-06T19:30:40.925Z,68.12
2023-03-06T19:35:43.430Z,68.60
2023-03-06T19:40:51.967Z,69.10
2023-03-06T19:45:55.218Z,69.73
2023-03-06T19:50:57.196Z,70.24
2023-03-06T19:56:21.530Z,70.47
2023-03-06T20:01:26.696Z,71.12
2023-03-06T20:06:33.760Z,71.26
2023-03-06T20:11:35.977Z,71.57
2023-03-06T20:16:39.549Z,71.58
2023-03-06T20:21:42.712Z,72.04
2023-03-06T20:26:46.824Z,72.35
2023-03-06T20:31:49.454Z,72.59
2023-03-06T20:36:51.510Z,72.92
2023-03-06T20:41:54.975Z,73.72
2023-03-06T20:46:57.088Z,73.64
2023-03-06T20:51:59.156Z,74.08
2023-03-06T20:57:01.405Z,74.04
2023-03-06T21:02:04.142Z,74.08
2023-03-06T21:07:07.085Z,73.86
2023-03-06T21:12:09.413Z,74.21
2023-03-06T21:17:13.843Z,74.52
2023-03-06T21:22:17.189Z,74.51
2023-03-06T21:27:19.559Z,74.36
2023-03-06T21:32:21.716Z,74.22
2023-03-06T21:37:23.739Z,74.16
2023-03-06T21:42:26.253Z,73.87
2023-03-06T21:47:28.545Z,73.87
2023-03-06T21:52:30.574Z,74.06
2023-03-06T21:57:32.798Z,74.51
2023-03-06T22:02:35.552Z,73.94
2023-03-06T22:07:38.269Z,74.11
2023-03-06T22:12:41.989Z,73.99
2023-03-06T22:17:48.723Z,74.01
2023-03-06T22:22:51.005Z,74.21
2023-03-06T22:27:53.130Z,74.58
2023-03-06T22:32:57.118Z,74.92
2023-03-06T22:37:59.668Z,75.53
2023-03-06T22:43:02.646Z,75.97
2023-03-06T22:48:11.171Z,75.96
2023-03-06T22:53:20.957Z,76.29
2023-03-06T22:58:23.270Z,76.11
2023-03-06T23:03:25.189Z,75.95
2023-03-06T23:08:27.200Z,75.77
2023-03-06T23:13:29.118Z,75.43
2023-03-06T23:18:52.461Z,75.44
2023-03-06T23:24:12.958Z,75.37
2023-03-06T23:29:16.358Z,75.70
2023-03-06T23:34:18.401Z,75.64
2023-03-06T23:39:21.374Z,75.77
2023-03-06T23:44:23.242Z,75.65
2023-03-06T23:49:25.192Z,75.37
2023-03-06T23:54:27.179Z,75.18
2023-03-06T23:59:29.493Z,75.16
